sensor_id;sensor_type;location;lat;lon;timestamp;noise_LAeq;noise_LA_min;noise_LA_max;noise_LA01;noise_LA95
72858;Laerm;62742;52.136;4.500;2023-05-07T00:00:47;43.04;39.30;51.13;;
72858;Laerm;62742;52.136;4.500;2023-05-07T00:03:14;43.24;39.59;50.21;;
72858;Laerm;62742;52.136;4.500;2023-05-07T00:05:40;42.94;38.29;50.96;;
72858;Laerm;62742;52.136;4.500;2023-05-07T00:08:07;42.94;38.95;49.77;;
72858;Laerm;62742;52.136;4.500;2023-05-07T00:10:33;42.91;38.65;51.58;;
72858;Laerm;62742;52.136;4.500;2023-05-07T00:12:59;42.83;38.27;49.17;;
72858;Laerm;62742;52.136;4.500;2023-05-07T00:15:26;43.31;38.88;51.54;;
72858;Laerm;62742;52.136;4.500;2023-05-07T00:17:53;43.33;38.88;49.47;;
72858;Laerm;62742;52.136;4.500;2023-05-07T00:20:19;46.12;39.59;51.08;;
72858;Laerm;62742;52.136;4.500;2023-05-07T00:22:45;44.91;40.45;50.03;;
72858;Laerm;62742;52.136;4.500;2023-05-07T00:25:12;43.47;39.92;49.81;;
72858;Laerm;62742;52.136;4.500;2023-05-07T00:27:38;43.87;40.49;50.19;;
72858;Laerm;62742;52.136;4.500;2023-05-07T00:30:05;43.70;39.88;51.11;;
72858;Laerm;62742;52.136;4.500;2023-05-07T00:32:32;43.60;40.20;52.21;;
72858;Laerm;62742;52.136;4.500;2023-05-07T00:34:58;43.58;39.68;51.01;;
72858;Laerm;62742;52.136;4.500;2023-05-07T00:37:24;43.77;40.21;47.83;;
72858;Laerm;62742;52.136;4.500;2023-05-07T00:39:51;43.73;39.85;49.81;;
72858;Laerm;62742;52.136;4.500;2023-05-07T00:42:17;43.50;39.61;49.83;;
72858;Laerm;62742;52.136;4.500;2023-05-07T00:44:44;43.03;39.35;50.14;;
72858;Laerm;62742;52.136;4.500;2023-05-07T00:47:10;42.83;38.83;50.73;;
72858;Laerm;62742;52.136;4.500;2023-05-07T00:49:44;43.00;39.35;51.74;;
72858;Laerm;62742;52.136;4.500;2023-05-07T00:52:13;43.17;39.37;51.34;;
72858;Laerm;62742;52.136;4.500;2023-05-07T00:54:41;42.95;39.00;51.32;;
72858;Laerm;62742;52.136;4.500;2023-05-07T00:57:09;42.93;39.48;52.38;;
72858;Laerm;62742;52.136;4.500;2023-05-07T00:59:35;43.67;40.47;50.78;;
72858;Laerm;62742;52.136;4.500;2023-05-07T01:02:01;43.45;40.00;52.98;;
72858;Laerm;62742;52.136;4.500;2023-05-07T01:04:28;43.26;39.65;51.20;;
72858;Laerm;62742;52.136;4.500;2023-05-07T01:06:55;43.31;39.56;50.95;;
72858;Laerm;62742;52.136;4.500;2023-05-07T01:09:24;44.24;39.89;49.89;;
72858;Laerm;62742;52.136;4.500;2023-05-07T01:11:51;43.48;39.04;52.01;;
72858;Laerm;62742;52.136;4.500;2023-05-07T01:14:18;43.47;38.81;51.97;;
72858;Laerm;62742;52.136;4.500;2023-05-07T01:16:45;44.26;39.90;50.69;;
72858;Laerm;62742;52.136;4.500;2023-05-07T01:19:12;44.15;40.18;52.70;;
72858;Laerm;62742;52.136;4.500;2023-05-07T01:21:45;43.99;37.61;51.10;;
72858;Laerm;62742;52.136;4.500;2023-05-07T01:24:12;43.31;39.18;51.07;;
72858;Laerm;62742;52.136;4.500;2023-05-07T01:26:39;42.64;38.40;51.07;;
72858;Laerm;62742;52.136;4.500;2023-05-07T01:29:05;42.56;38.63;51.71;;
72858;Laerm;62742;52.136;4.500;2023-05-07T01:31:33;42.60;38.53;51.47;;
72858;Laerm;62742;52.136;4.500;2023-05-07T01:34:01;43.08;38.74;51.46;;
72858;Laerm;62742;52.136;4.500;2023-05-07T01:36:29;43.46;40.08;50.54;;
72858;Laerm;62742;52.136;4.500;2023-05-07T01:38:58;43.35;39.59;50.97;;
72858;Laerm;62742;52.136;4.500;2023-05-07T01:41:25;43.26;39.47;49.94;;
72858;Laerm;62742;52.136;4.500;2023-05-07T01:43:52;43.59;39.76;48.20;;
72858;Laerm;62742;52.136;4.500;2023-05-07T01:46:20;43.11;39.34;51.46;;
72858;Laerm;62742;52.136;4.500;2023-05-07T01:48:46;42.91;37.94;50.08;;
72858;Laerm;62742;52.136;4.500;2023-05-07T01:51:13;42.86;38.72;50.79;;
72858;Laerm;62742;52.136;4.500;2023-05-07T01:53:39;42.95;39.34;49.24;;
72858;Laerm;62742;52.136;4.500;2023-05-07T01:56:07;42.84;38.96;51.36;;
72858;Laerm;62742;52.136;4.500;2023-05-07T01:58:33;42.95;38.43;52.07;;
72858;Laerm;62742;52.136;4.500;2023-05-07T02:01:00;42.81;39.05;50.14;;
72858;Laerm;62742;52.136;4.500;2023-05-07T02:03:26;42.93;38.44;50.64;;
72858;Laerm;62742;52.136;4.500;2023-05-07T02:05:52;43.75;40.58;50.35;;
72858;Laerm;62742;52.136;4.500;2023-05-07T02:08:18;43.54;39.61;50.29;;
72858;Laerm;62742;52.136;4.500;2023-05-07T02:10:44;43.56;40.27;51.43;;
72858;Laerm;62742;52.136;4.500;2023-05-07T02:13:10;43.29;39.24;51.12;;
72858;Laerm;62742;52.136;4.500;2023-05-07T02:15:37;43.63;40.15;50.04;;
72858;Laerm;62742;52.136;4.500;2023-05-07T02:18:05;43.67;39.98;50.49;;
72858;Laerm;62742;52.136;4.500;2023-05-07T02:20:35;43.74;39.60;51.11;;
72858;Laerm;62742;52.136;4.500;2023-05-07T02:23:01;44.01;39.97;50.63;;
72858;Laerm;62742;52.136;4.500;2023-05-07T02:25:27;43.73;40.48;51.61;;
72858;Laerm;62742;52.136;4.500;2023-05-07T02:27:55;43.27;39.65;49.84;;
72858;Laerm;62742;52.136;4.500;2023-05-07T02:30:21;43.30;39.96;52.23;;
72858;Laerm;62742;52.136;4.500;2023-05-07T02:32:47;43.69;40.23;51.02;;
72858;Laerm;62742;52.136;4.500;2023-05-07T02:35:13;43.61;39.02;49.76;;
72858;Laerm;62742;52.136;4.500;2023-05-07T02:37:40;44.30;39.81;51.26;;
72858;Laerm;62742;52.136;4.500;2023-05-07T02:40:06;43.84;39.94;49.62;;
72858;Laerm;62742;52.136;4.500;2023-05-07T02:42:33;44.41;38.16;51.01;;
72858;Laerm;62742;52.136;4.500;2023-05-07T02:44:59;44.05;40.65;50.57;;
72858;Laerm;62742;52.136;4.500;2023-05-07T02:47:26;44.94;40.95;50.68;;
72858;Laerm;62742;52.136;4.500;2023-05-07T02:49:54;44.92;40.68;48.22;;
72858;Laerm;62742;52.136;4.500;2023-05-07T02:52:21;45.59;42.25;50.39;;
72858;Laerm;62742;52.136;4.500;2023-05-07T02:54:48;45.65;41.22;50.59;;
72858;Laerm;62742;52.136;4.500;2023-05-07T02:57:14;44.85;41.00;50.68;;
72858;Laerm;62742;52.136;4.500;2023-05-07T02:59:41;44.51;40.97;49.48;;
72858;Laerm;62742;52.136;4.500;2023-05-07T03:02:07;44.63;40.24;50.91;;
72858;Laerm;62742;52.136;4.500;2023-05-07T03:04:34;44.12;39.44;51.00;;
72858;Laerm;62742;52.136;4.500;2023-05-07T03:07:00;44.60;40.00;52.16;;
72858;Laerm;62742;52.136;4.500;2023-05-07T03:09:26;43.93;39.54;50.39;;
72858;Laerm;62742;52.136;4.500;2023-05-07T03:11:52;44.33;40.30;49.93;;
72858;Laerm;62742;52.136;4.500;2023-05-07T03:14:18;43.84;40.32;50.90;;
72858;Laerm;62742;52.136;4.500;2023-05-07T03:16:45;44.00;40.87;50.86;;
72858;Laerm;62742;52.136;4.500;2023-05-07T03:19:11;43.87;40.28;51.45;;
72858;Laerm;62742;52.136;4.500;2023-05-07T03:21:37;43.62;39.37;49.43;;
72858;Laerm;62742;52.136;4.500;2023-05-07T03:24:03;43.09;39.91;51.35;;
72858;Laerm;62742;52.136;4.500;2023-05-07T03:26:30;42.89;39.05;51.24;;
72858;Laerm;62742;52.136;4.500;2023-05-07T03:28:56;43.54;40.01;50.65;;
72858;Laerm;62742;52.136;4.500;2023-05-07T03:31:22;45.48;42.36;51.26;;
72858;Laerm;62742;52.136;4.500;2023-05-07T03:33:56;44.44;40.19;49.47;;
72858;Laerm;62742;52.136;4.500;2023-05-07T03:36:23;43.49;38.76;51.56;;
72858;Laerm;62742;52.136;4.500;2023-05-07T03:38:50;43.82;40.01;47.05;;
72858;Laerm;62742;52.136;4.500;2023-05-07T03:41:16;43.29;39.34;50.56;;
72858;Laerm;62742;52.136;4.500;2023-05-07T03:43:42;43.04;38.66;50.51;;
72858;Laerm;62742;52.136;4.500;2023-05-07T03:46:08;43.12;39.10;50.95;;
72858;Laerm;62742;52.136;4.500;2023-05-07T03:48:35;43.22;39.13;50.16;;
72858;Laerm;62742;52.136;4.500;2023-05-07T03:51:01;43.15;38.74;51.09;;
72858;Laerm;62742;52.136;4.500;2023-05-07T03:53:27;43.33;38.96;48.99;;
72858;Laerm;62742;52.136;4.500;2023-05-07T03:55:53;43.51;39.00;50.08;;
72858;Laerm;62742;52.136;4.500;2023-05-07T03:58:19;43.58;38.47;49.81;;
72858;Laerm;62742;52.136;4.500;2023-05-07T04:00:46;43.78;38.28;50.72;;
72858;Laerm;62742;52.136;4.500;2023-05-07T04:03:14;43.94;40.02;51.25;;
72858;Laerm;62742;52.136;4.500;2023-05-07T04:05:40;43.56;40.18;50.40;;
72858;Laerm;62742;52.136;4.500;2023-05-07T04:08:06;43.49;39.99;51.55;;
72858;Laerm;62742;52.136;4.500;2023-05-07T04:10:33;43.26;39.76;51.69;;
72858;Laerm;62742;52.136;4.500;2023-05-07T04:12:59;43.49;39.41;50.73;;
72858;Laerm;62742;52.136;4.500;2023-05-07T04:15:25;43.82;39.09;51.21;;
72858;Laerm;62742;52.136;4.500;2023-05-07T04:17:51;44.66;40.25;50.63;;
72858;Laerm;62742;52.136;4.500;2023-05-07T04:20:17;43.43;39.28;48.74;;
72858;Laerm;62742;52.136;4.500;2023-05-07T04:22:44;42.77;38.55;49.99;;
72858;Laerm;62742;52.136;4.500;2023-05-07T04:25:10;43.57;39.65;50.32;;
72858;Laerm;62742;52.136;4.500;2023-05-07T04:27:36;43.49;39.95;49.80;;
72858;Laerm;62742;52.136;4.500;2023-05-07T04:30:03;43.12;37.64;51.20;;
72858;Laerm;62742;52.136;4.500;2023-05-07T04:32:30;43.44;38.53;50.59;;
72858;Laerm;62742;52.136;4.500;2023-05-07T04:34:56;43.54;38.09;49.97;;
72858;Laerm;62742;52.136;4.500;2023-05-07T04:37:22;43.43;38.57;51.95;;
72858;Laerm;62742;52.136;4.500;2023-05-07T04:39:48;43.64;39.35;51.14;;
72858;Laerm;62742;52.136;4.500;2023-05-07T04:42:16;42.60;38.72;50.62;;
72858;Laerm;62742;52.136;4.500;2023-05-07T04:44:43;42.45;36.91;48.50;;
72858;Laerm;62742;52.136;4.500;2023-05-07T04:47:09;42.70;38.49;50.45;;
72858;Laerm;62742;52.136;4.500;2023-05-07T04:49:37;42.42;37.34;50.73;;
72858;Laerm;62742;52.136;4.500;2023-05-07T04:52:04;41.90;36.85;49.43;;
72858;Laerm;62742;52.136;4.500;2023-05-07T04:54:30;42.63;37.26;50.45;;
72858;Laerm;62742;52.136;4.500;2023-05-07T04:56:56;42.79;37.00;50.26;;
72858;Laerm;62742;52.136;4.500;2023-05-07T04:59:23;43.43;39.01;50.59;;
72858;Laerm;62742;52.136;4.500;2023-05-07T05:01:49;42.90;39.16;48.94;;
72858;Laerm;62742;52.136;4.500;2023-05-07T05:04:15;42.35;38.68;50.04;;
72858;Laerm;62742;52.136;4.500;2023-05-07T05:06:41;42.57;38.52;49.44;;
72858;Laerm;62742;52.136;4.500;2023-05-07T05:09:07;42.71;39.26;49.22;;
72858;Laerm;62742;52.136;4.500;2023-05-07T05:11:33;43.29;39.20;49.33;;
72858;Laerm;62742;52.136;4.500;2023-05-07T05:14:00;43.50;39.85;49.85;;
72858;Laerm;62742;52.136;4.500;2023-05-07T05:16:26;43.03;38.58;50.53;;
72858;Laerm;62742;52.136;4.500;2023-05-07T05:18:52;42.99;38.30;47.58;;
72858;Laerm;62742;52.136;4.500;2023-05-07T05:21:20;42.95;38.98;49.47;;
72858;Laerm;62742;52.136;4.500;2023-05-07T05:23:47;43.23;39.70;49.39;;
72858;Laerm;62742;52.136;4.500;2023-05-07T05:26:13;43.26;39.35;47.74;;
72858;Laerm;62742;52.136;4.500;2023-05-07T05:28:39;43.45;40.70;49.91;;
72858;Laerm;62742;52.136;4.500;2023-05-07T05:31:05;43.69;40.23;50.29;;
72858;Laerm;62742;52.136;4.500;2023-05-07T05:33:32;43.39;38.05;50.16;;
72858;Laerm;62742;52.136;4.500;2023-05-07T05:35:58;42.82;37.43;49.36;;
72858;Laerm;62742;52.136;4.500;2023-05-07T05:38:24;41.97;37.07;50.50;;
72858;Laerm;62742;52.136;4.500;2023-05-07T05:40:51;42.28;36.81;55.24;;
72858;Laerm;62742;52.136;4.500;2023-05-07T05:43:17;41.78;36.53;52.74;;
72858;Laerm;62742;52.136;4.500;2023-05-07T05:45:44;42.06;35.89;55.49;;
72858;Laerm;62742;52.136;4.500;2023-05-07T05:48:10;42.12;37.22;50.08;;
72858;Laerm;62742;52.136;4.500;2023-05-07T05:50:36;42.17;36.21;49.91;;
72858;Laerm;62742;52.136;4.500;2023-05-07T05:53:02;41.60;36.01;51.09;;
72858;Laerm;62742;52.136;4.500;2023-05-07T05:55:29;41.70;35.89;50.12;;
72858;Laerm;62742;52.136;4.500;2023-05-07T05:57:55;42.55;37.12;53.81;;
72858;Laerm;62742;52.136;4.500;2023-05-07T06:00:22;43.69;38.39;52.73;;
72858;Laerm;62742;52.136;4.500;2023-05-07T06:02:48;44.55;40.31;52.61;;
72858;Laerm;62742;52.136;4.500;2023-05-07T06:05:15;44.70;40.61;53.19;;
72858;Laerm;62742;52.136;4.500;2023-05-07T06:07:41;44.40;40.50;51.98;;
72858;Laerm;62742;52.136;4.500;2023-05-07T06:10:07;44.70;40.82;52.07;;
72858;Laerm;62742;52.136;4.500;2023-05-07T06:12:34;44.66;40.29;51.94;;
72858;Laerm;62742;52.136;4.500;2023-05-07T06:15:00;44.56;40.92;51.61;;
72858;Laerm;62742;52.136;4.500;2023-05-07T06:17:27;45.01;41.85;51.36;;
72858;Laerm;62742;52.136;4.500;2023-05-07T06:19:53;45.51;41.59;49.58;;
72858;Laerm;62742;52.136;4.500;2023-05-07T06:22:19;45.65;41.52;50.90;;
72858;Laerm;62742;52.136;4.500;2023-05-07T06:24:45;44.57;40.65;50.67;;
72858;Laerm;62742;52.136;4.500;2023-05-07T06:27:12;43.75;40.34;50.67;;
72858;Laerm;62742;52.136;4.500;2023-05-07T06:29:38;45.10;40.98;50.32;;
72858;Laerm;62742;52.136;4.500;2023-05-07T06:32:11;45.73;41.83;49.89;;
72858;Laerm;62742;52.136;4.500;2023-05-07T06:34:38;44.94;41.93;50.32;;
72858;Laerm;62742;52.136;4.500;2023-05-07T06:37:04;45.91;42.76;49.71;;
72858;Laerm;62742;52.136;4.500;2023-05-07T06:39:31;45.95;43.34;49.82;;
72858;Laerm;62742;52.136;4.500;2023-05-07T06:41:57;45.48;42.22;50.11;;
72858;Laerm;62742;52.136;4.500;2023-05-07T06:44:23;45.84;42.17;49.26;;
72858;Laerm;62742;52.136;4.500;2023-05-07T06:46:50;45.55;42.83;49.88;;
72858;Laerm;62742;52.136;4.500;2023-05-07T06:49:16;46.57;42.99;51.06;;
72858;Laerm;62742;52.136;4.500;2023-05-07T06:51:43;46.60;43.51;50.54;;
72858;Laerm;62742;52.136;4.500;2023-05-07T06:54:09;46.16;42.15;51.10;;
72858;Laerm;62742;52.136;4.500;2023-05-07T06:56:35;45.23;41.55;51.86;;
72858;Laerm;62742;52.136;4.500;2023-05-07T06:59:02;44.59;41.19;50.58;;
72858;Laerm;62742;52.136;4.500;2023-05-07T07:01:29;45.06;41.81;49.93;;
72858;Laerm;62742;52.136;4.500;2023-05-07T07:03:55;46.00;42.20;50.51;;
72858;Laerm;62742;52.136;4.500;2023-05-07T07:06:21;46.81;43.97;51.42;;
72858;Laerm;62742;52.136;4.500;2023-05-07T07:08:47;46.76;43.26;50.06;;
72858;Laerm;62742;52.136;4.500;2023-05-07T07:11:14;46.24;42.78;51.16;;
72858;Laerm;62742;52.136;4.500;2023-05-07T07:13:41;46.22;42.10;51.34;;
72858;Laerm;62742;52.136;4.500;2023-05-07T07:16:08;46.83;43.68;50.78;;
72858;Laerm;62742;52.136;4.500;2023-05-07T07:18:35;47.24;43.73;52.69;;
72858;Laerm;62742;52.136;4.500;2023-05-07T07:21:01;47.46;44.20;52.22;;
72858;Laerm;62742;52.136;4.500;2023-05-07T07:23:28;47.43;43.76;51.93;;
72858;Laerm;62742;52.136;4.500;2023-05-07T07:25:54;47.11;43.95;51.83;;
72858;Laerm;62742;52.136;4.500;2023-05-07T07:28:21;47.12;44.24;51.78;;
72858;Laerm;62742;52.136;4.500;2023-05-07T07:30:47;46.43;42.70;51.31;;
72858;Laerm;62742;52.136;4.500;2023-05-07T07:33:13;46.70;43.08;52.42;;
72858;Laerm;62742;52.136;4.500;2023-05-07T07:35:40;47.48;43.38;54.30;;
72858;Laerm;62742;52.136;4.500;2023-05-07T07:38:06;47.03;43.67;51.84;;
72858;Laerm;62742;52.136;4.500;2023-05-07T07:40:34;48.41;44.51;53.88;;
72858;Laerm;62742;52.136;4.500;2023-05-07T07:43:01;48.62;44.57;53.19;;
72858;Laerm;62742;52.136;4.500;2023-05-07T07:45:27;48.73;44.92;53.24;;
72858;Laerm;62742;52.136;4.500;2023-05-07T07:47:54;49.20;44.99;55.30;;
72858;Laerm;62742;52.136;4.500;2023-05-07T07:50:20;48.56;44.81;55.40;;
72858;Laerm;62742;52.136;4.500;2023-05-07T07:52:46;49.06;44.36;54.37;;
72858;Laerm;62742;52.136;4.500;2023-05-07T07:55:12;48.89;44.27;55.34;;
72858;Laerm;62742;52.136;4.500;2023-05-07T07:57:38;48.87;44.16;54.05;;
72858;Laerm;62742;52.136;4.500;2023-05-07T08:00:08;49.54;43.50;57.03;;
72858;Laerm;62742;52.136;4.500;2023-05-07T08:02:35;49.41;42.60;55.21;;
72858;Laerm;62742;52.136;4.500;2023-05-07T08:05:01;49.92;43.88;56.85;;
72858;Laerm;62742;52.136;4.500;2023-05-07T08:07:27;49.30;43.89;54.18;;
72858;Laerm;62742;52.136;4.500;2023-05-07T08:09:53;49.76;43.65;54.54;;
72858;Laerm;62742;52.136;4.500;2023-05-07T08:12:20;50.54;45.11;56.14;;
72858;Laerm;62742;52.136;4.500;2023-05-07T08:14:46;50.36;45.11;55.55;;
72858;Laerm;62742;52.136;4.500;2023-05-07T08:17:12;51.94;45.42;58.06;;
72858;Laerm;62742;52.136;4.500;2023-05-07T08:19:42;50.71;44.54;56.31;;
72858;Laerm;62742;52.136;4.500;2023-05-07T08:22:10;50.92;44.11;56.96;;
72858;Laerm;62742;52.136;4.500;2023-05-07T08:24:36;50.13;44.55;57.89;;
72858;Laerm;62742;52.136;4.500;2023-05-07T08:27:02;49.34;44.15;53.73;;
72858;Laerm;62742;52.136;4.500;2023-05-07T08:29:29;49.62;44.32;54.68;;
72858;Laerm;62742;52.136;4.500;2023-05-07T08:31:55;50.37;44.70;54.78;;
72858;Laerm;62742;52.136;4.500;2023-05-07T08:34:22;49.93;44.55;54.74;;
72858;Laerm;62742;52.136;4.500;2023-05-07T08:36:48;49.93;45.32;55.13;;
72858;Laerm;62742;52.136;4.500;2023-05-07T08:39:15;49.57;43.55;55.16;;
72858;Laerm;62742;52.136;4.500;2023-05-07T08:41:45;49.01;43.52;54.76;;
72858;Laerm;62742;52.136;4.500;2023-05-07T08:44:13;48.84;44.00;53.96;;
72858;Laerm;62742;52.136;4.500;2023-05-07T08:46:41;49.44;44.96;54.52;;
72858;Laerm;62742;52.136;4.500;2023-05-07T08:49:08;49.72;46.15;54.18;;
72858;Laerm;62742;52.136;4.500;2023-05-07T08:51:35;49.10;44.50;54.39;;
72858;Laerm;62742;52.136;4.500;2023-05-07T08:54:02;50.22;44.86;55.39;;
72858;Laerm;62742;52.136;4.500;2023-05-07T08:56:28;49.53;44.51;54.89;;
72858;Laerm;62742;52.136;4.500;2023-05-07T08:58:54;49.32;44.96;54.13;;
72858;Laerm;62742;52.136;4.500;2023-05-07T09:01:24;50.23;45.05;55.70;;
72858;Laerm;62742;52.136;4.500;2023-05-07T09:03:51;50.31;44.88;54.52;;
72858;Laerm;62742;52.136;4.500;2023-05-07T09:06:18;49.48;45.14;54.13;;
72858;Laerm;62742;52.136;4.500;2023-05-07T09:08:52;50.34;45.11;54.66;;
72858;Laerm;62742;52.136;4.500;2023-05-07T09:11:23;50.77;44.87;55.48;;
72858;Laerm;62742;52.136;4.500;2023-05-07T09:13:53;51.60;45.29;56.56;;
72858;Laerm;62742;52.136;4.500;2023-05-07T09:16:21;50.12;44.09;54.80;;
72858;Laerm;62742;52.136;4.500;2023-05-07T09:18:50;49.08;43.93;55.17;;
72858;Laerm;62742;52.136;4.500;2023-05-07T09:21:18;49.03;42.94;53.95;;
72858;Laerm;62742;52.136;4.500;2023-05-07T09:23:45;49.61;43.06;53.86;;
72858;Laerm;62742;52.136;4.500;2023-05-07T09:26:11;49.54;43.89;54.38;;
72858;Laerm;62742;52.136;4.500;2023-05-07T09:28:39;49.34;43.98;54.49;;
72858;Laerm;62742;52.136;4.500;2023-05-07T09:31:06;50.28;43.44;56.34;;
72858;Laerm;62742;52.136;4.500;2023-05-07T09:33:33;51.32;44.03;56.73;;
72858;Laerm;62742;52.136;4.500;2023-05-07T09:36:06;49.52;43.01;55.29;;
72858;Laerm;62742;52.136;4.500;2023-05-07T09:38:33;50.49;43.30;56.25;;
72858;Laerm;62742;52.136;4.500;2023-05-07T09:43:34;48.70;42.92;54.51;;
72858;Laerm;62742;52.136;4.500;2023-05-07T09:46:16;49.04;42.58;54.63;;
72858;Laerm;62742;52.136;4.500;2023-05-07T09:48:44;48.59;42.88;54.61;;
72858;Laerm;62742;52.136;4.500;2023-05-07T09:51:36;49.43;43.14;55.63;;
72858;Laerm;62742;52.136;4.500;2023-05-07T09:54:04;49.52;44.19;55.16;;
72858;Laerm;62742;52.136;4.500;2023-05-07T09:56:31;49.14;43.75;54.30;;
72858;Laerm;62742;52.136;4.500;2023-05-07T09:59:01;49.29;43.08;54.59;;
72858;Laerm;62742;52.136;4.500;2023-05-07T10:01:31;48.78;43.13;54.86;;
72858;Laerm;62742;52.136;4.500;2023-05-07T10:03:57;50.30;43.57;55.62;;
72858;Laerm;62742;52.136;4.500;2023-05-07T10:06:24;50.78;43.16;56.38;;
72858;Laerm;62742;52.136;4.500;2023-05-07T10:08:54;51.31;42.76;56.66;;
72858;Laerm;62742;52.136;4.500;2023-05-07T10:11:22;50.42;42.66;56.43;;
72858;Laerm;62742;52.136;4.500;2023-05-07T10:13:49;49.47;42.40;55.60;;
72858;Laerm;62742;52.136;4.500;2023-05-07T10:16:18;49.53;42.82;55.80;;
72858;Laerm;62742;52.136;4.500;2023-05-07T10:18:46;49.97;43.04;56.45;;
72858;Laerm;62742;52.136;4.500;2023-05-07T10:21:18;49.83;42.87;57.45;;
72858;Laerm;62742;52.136;4.500;2023-05-07T10:23:54;49.98;42.34;56.17;;
72858;Laerm;62742;52.136;4.500;2023-05-07T10:26:23;49.92;42.41;56.15;;
72858;Laerm;62742;52.136;4.500;2023-05-07T10:28:54;50.56;41.69;56.09;;
72858;Laerm;62742;52.136;4.500;2023-05-07T10:31:31;50.62;42.31;56.44;;
72858;Laerm;62742;52.136;4.500;2023-05-07T10:34:00;50.88;43.70;56.99;;
72858;Laerm;62742;52.136;4.500;2023-05-07T10:36:29;51.94;43.76;57.27;;
72858;Laerm;62742;52.136;4.500;2023-05-07T10:38:55;51.92;44.50;57.12;;
72858;Laerm;62742;52.136;4.500;2023-05-07T10:41:21;50.65;42.78;55.49;;
72858;Laerm;62742;52.136;4.500;2023-05-07T10:43:48;51.67;43.03;57.26;;
72858;Laerm;62742;52.136;4.500;2023-05-07T10:46:16;51.77;43.38;56.31;;
72858;Laerm;62742;52.136;4.500;2023-05-07T10:51:27;51.70;42.53;57.82;;
72858;Laerm;62742;52.136;4.500;2023-05-07T10:56:42;50.01;44.00;56.10;;
72858;Laerm;62742;52.136;4.500;2023-05-07T11:01:59;50.70;43.48;56.39;;
72858;Laerm;62742;52.136;4.500;2023-05-07T11:04:29;50.68;41.73;55.42;;
72858;Laerm;62742;52.136;4.500;2023-05-07T11:15:08;51.43;42.59;55.98;;
72858;Laerm;62742;52.136;4.500;2023-05-07T11:17:53;50.89;42.66;55.88;;
72858;Laerm;62742;52.136;4.500;2023-05-07T11:20:20;50.40;42.98;55.19;;
72858;Laerm;62742;52.136;4.500;2023-05-07T11:22:47;50.00;41.79;55.39;;
72858;Laerm;62742;52.136;4.500;2023-05-07T11:25:19;49.46;42.19;54.59;;
72858;Laerm;62742;52.136;4.500;2023-05-07T11:27:47;51.68;43.01;57.44;;
72858;Laerm;62742;52.136;4.500;2023-05-07T11:30:17;52.31;44.48;56.11;;
72858;Laerm;62742;52.136;4.500;2023-05-07T11:32:47;52.17;43.99;57.48;;
72858;Laerm;62742;52.136;4.500;2023-05-07T11:35:15;50.88;42.82;56.59;;
72858;Laerm;62742;52.136;4.500;2023-05-07T11:37:45;50.57;43.04;55.68;;
72858;Laerm;62742;52.136;4.500;2023-05-07T11:40:13;47.34;43.44;53.65;;
72858;Laerm;62742;52.136;4.500;2023-05-07T11:42:40;46.86;42.81;52.49;;
72858;Laerm;62742;52.136;4.500;2023-05-07T11:45:10;47.41;42.51;53.56;;
72858;Laerm;62742;52.136;4.500;2023-05-07T11:47:36;47.47;43.60;54.50;;
72858;Laerm;62742;52.136;4.500;2023-05-07T11:50:07;47.35;42.80;53.69;;
72858;Laerm;62742;52.136;4.500;2023-05-07T11:52:34;46.87;43.56;52.76;;
72858;Laerm;62742;52.136;4.500;2023-05-07T11:55:02;46.91;43.94;51.62;;
72858;Laerm;62742;52.136;4.500;2023-05-07T11:57:29;47.05;43.97;51.05;;
72858;Laerm;62742;52.136;4.500;2023-05-07T11:59:56;47.53;43.87;52.42;;
72858;Laerm;62742;52.136;4.500;2023-05-07T12:02:23;46.71;43.73;51.03;;
72858;Laerm;62742;52.136;4.500;2023-05-07T12:04:54;47.07;43.05;52.27;;
72858;Laerm;62742;52.136;4.500;2023-05-07T12:07:21;47.21;43.92;52.65;;
72858;Laerm;62742;52.136;4.500;2023-05-07T12:09:47;46.98;44.38;51.48;;
72858;Laerm;62742;52.136;4.500;2023-05-07T12:12:14;46.68;43.27;50.47;;
72858;Laerm;62742;52.136;4.500;2023-05-07T12:14:43;46.37;43.28;49.77;;
72858;Laerm;62742;52.136;4.500;2023-05-07T12:17:11;45.89;42.45;50.17;;
72858;Laerm;62742;52.136;4.500;2023-05-07T12:19:39;45.62;42.50;52.38;;
72858;Laerm;62742;52.136;4.500;2023-05-07T12:22:07;45.40;40.77;50.55;;
72858;Laerm;62742;52.136;4.500;2023-05-07T12:24:47;44.95;41.94;51.59;;
72858;Laerm;62742;52.136;4.500;2023-05-07T12:27:14;44.72;40.78;53.81;;
72858;Laerm;62742;52.136;4.500;2023-05-07T12:29:48;45.05;41.66;52.14;;
72858;Laerm;62742;52.136;4.500;2023-05-07T12:32:24;45.59;41.39;53.26;;
72858;Laerm;62742;52.136;4.500;2023-05-07T12:34:51;45.09;41.34;51.28;;
72858;Laerm;62742;52.136;4.500;2023-05-07T12:37:23;44.94;41.26;50.37;;
72858;Laerm;62742;52.136;4.500;2023-05-07T12:40:03;45.54;41.69;52.53;;
72858;Laerm;62742;52.136;4.500;2023-05-07T12:42:41;45.34;42.12;54.46;;
72858;Laerm;62742;52.136;4.500;2023-05-07T12:45:15;45.14;41.37;52.04;;
72858;Laerm;62742;52.136;4.500;2023-05-07T12:47:46;45.27;41.56;52.08;;
72858;Laerm;62742;52.136;4.500;2023-05-07T12:50:15;45.93;42.13;52.97;;
72858;Laerm;62742;52.136;4.500;2023-05-07T12:52:47;46.00;41.19;53.04;;
72858;Laerm;62742;52.136;4.500;2023-05-07T12:55:14;46.20;41.52;51.63;;
72858;Laerm;62742;52.136;4.500;2023-05-07T12:57:43;46.19;41.86;53.41;;
72858;Laerm;62742;52.136;4.500;2023-05-07T13:00:12;45.27;41.33;52.98;;
72858;Laerm;62742;52.136;4.500;2023-05-07T13:02:39;45.43;40.94;52.73;;
72858;Laerm;62742;52.136;4.500;2023-05-07T13:05:07;44.90;40.58;52.91;;
72858;Laerm;62742;52.136;4.500;2023-05-07T13:07:34;45.50;41.39;52.96;;
72858;Laerm;62742;52.136;4.500;2023-05-07T13:10:01;45.46;41.77;53.75;;
72858;Laerm;62742;52.136;4.500;2023-05-07T13:12:27;46.00;41.93;56.36;;
72858;Laerm;62742;52.136;4.500;2023-05-07T13:14:53;45.86;41.77;56.69;;
72858;Laerm;62742;52.136;4.500;2023-05-07T13:17:19;45.31;41.41;52.69;;
72858;Laerm;62742;52.136;4.500;2023-05-07T13:19:46;45.70;42.03;51.86;;
72858;Laerm;62742;52.136;4.500;2023-05-07T13:22:12;45.30;41.29;52.49;;
72858;Laerm;62742;52.136;4.500;2023-05-07T13:24:38;45.65;41.16;52.76;;
72858;Laerm;62742;52.136;4.500;2023-05-07T13:27:07;45.86;41.17;53.92;;
72858;Laerm;62742;52.136;4.500;2023-05-07T13:29:33;46.57;43.02;53.19;;
72858;Laerm;62742;52.136;4.500;2023-05-07T13:32:00;46.58;43.35;53.16;;
72858;Laerm;62742;52.136;4.500;2023-05-07T13:34:26;46.44;41.98;51.78;;
72858;Laerm;62742;52.136;4.500;2023-05-07T13:36:52;46.57;43.00;53.09;;
72858;Laerm;62742;52.136;4.500;2023-05-07T13:39:18;46.37;42.30;52.39;;
72858;Laerm;62742;52.136;4.500;2023-05-07T13:41:44;45.75;42.36;52.07;;
72858;Laerm;62742;52.136;4.500;2023-05-07T13:44:11;45.49;41.99;51.95;;
72858;Laerm;62742;52.136;4.500;2023-05-07T13:46:37;45.40;40.75;52.19;;
72858;Laerm;62742;52.136;4.500;2023-05-07T13:49:03;46.27;42.87;52.34;;
72858;Laerm;62742;52.136;4.500;2023-05-07T13:51:29;46.75;43.15;52.42;;
72858;Laerm;62742;52.136;4.500;2023-05-07T13:53:55;46.90;43.18;52.62;;
72858;Laerm;62742;52.136;4.500;2023-05-07T13:56:22;47.15;43.20;52.71;;
72858;Laerm;62742;52.136;4.500;2023-05-07T13:58:49;46.63;42.49;55.39;;
72858;Laerm;62742;52.136;4.500;2023-05-07T14:01:15;46.39;42.24;52.71;;
72858;Laerm;62742;52.136;4.500;2023-05-07T14:03:42;47.10;43.12;52.52;;